createdAt,value
2023-03-29T00:03:50.004Z,10.50
2023-03-29T00:09:10.612Z,10.65
2023-03-29T00:14:31.740Z,14.13
2023-03-29T00:19:52.599Z,16.52
2023-03-29T00:25:14.362Z,15.60
2023-03-29T00:30:35.622Z,20.50
2023-03-29T00:35:56.442Z,21.80
2023-03-29T00:41:17.349Z,21.75
2023-03-29T00:46:38.407Z,21.77
2023-03-29T00:51:59.702Z,17.77
2023-03-29T00:57:22.795Z,21.77
2023-03-29T01:02:51.150Z,20.50
2023-03-29T01:08:19.124Z,20.80
2023-03-29T01:13:52.905Z,25.13
2023-03-29T01:19:18.358Z,19.98
2023-03-29T01:24:53.563Z,19.77
2023-03-29T01:30:30.617Z,18.30
2023-03-29T01:36:05.254Z,22.23
2023-03-29T01:41:39.786Z,16.83
2023-03-29T01:47:10.832Z,17.27
2023-03-29T01:52:38.238Z,22.27
2023-03-29T01:58:01.937Z,18.02
2023-03-29T02:03:26.617Z,17.65
2023-03-29T02:08:51.221Z,13.60
2023-03-29T02:14:13.877Z,17.40
2023-03-29T02:19:34.803Z,13.00
2023-03-29T02:24:59.447Z,16.40
2023-03-29T02:30:21.177Z,12.43
2023-03-29T02:35:54.636Z,13.07
2023-03-29T02:41:17.139Z,14.98
2023-03-29T02:46:38.434Z,15.13
2023-03-29T02:52:07.460Z,12.05
2023-03-29T02:57:29.537Z,11.10
2023-03-29T03:02:51.043Z,16.98
2023-03-29T03:08:12.520Z,27.55
2023-03-29T03:13:33.240Z,28.52
2023-03-29T03:18:55.708Z,16.95
2023-03-29T03:24:17.751Z,12.80
2023-03-29T03:29:38.725Z,14.77
2023-03-29T03:35:05.584Z,12.43
2023-03-29T03:40:28.264Z,12.13
2023-03-29T03:45:49.718Z,9.20
2023-03-29T03:51:14.156Z,9.73
2023-03-29T03:56:35.077Z,8.63
2023-03-29T04:02:05.914Z,9.07
2023-03-29T04:07:29.329Z,10.00
2023-03-29T04:13:17.200Z,9.10
2023-03-29T04:18:56.615Z,13.63
2023-03-29T04:24:18.341Z,13.02
2023-03-29T04:29:57.269Z,11.50
2023-03-29T04:35:33.804Z,9.48
2023-03-29T04:40:55.460Z,12.52
2023-03-29T04:46:44.300Z,11.52
2023-03-29T04:52:17.492Z,12.02
2023-03-29T04:57:38.079Z,15.80
2023-03-29T05:03:07.995Z,10.32
2023-03-29T05:08:40.278Z,11.20
2023-03-29T05:14:08.749Z,11.75
2023-03-29T05:19:29.908Z,14.32
2023-03-29T05:24:52.902Z,20.02
2023-03-29T05:30:15.489Z,14.48
2023-03-29T05:35:46.091Z,29.95
2023-03-29T05:41:07.176Z,32.15
2023-03-29T05:46:47.979Z,21.92
2023-03-29T05:52:11.696Z,24.25
2023-03-29T05:57:35.020Z,18.17
2023-03-29T06:03:06.459Z,22.00
2023-03-29T06:08:33.556Z,23.55
2023-03-29T06:14:03.831Z,21.95
2023-03-29T06:19:25.869Z,18.55
2023-03-29T06:24:49.018Z,10.18
2023-03-29T06:30:19.345Z,14.48
2023-03-29T06:35:47.229Z,19.45
2023-03-29T06:41:11.700Z,10.50
2023-03-29T06:47:10.252Z,14.38
2023-03-29T06:52:30.850Z,11.50
2023-03-29T06:57:52.774Z,6.38
2023-03-29T07:03:20.274Z,7.15
2023-03-29T07:08:45.101Z,10.70
2023-03-29T07:14:33.536Z,6.38
2023-03-29T07:19:55.059Z,6.40
2023-03-29T07:25:38.835Z,8.57
2023-03-29T07:31:06.819Z,8.05
2023-03-29T07:36:34.476Z,8.82
2023-03-29T07:41:57.771Z,10.23
2023-03-29T07:47:19.704Z,5.50
2023-03-29T07:52:41.485Z,3.08
2023-03-29T07:58:04.359Z,9.60
2023-03-29T08:03:27.890Z,9.35
2023-03-29T08:08:48.906Z,6.38
2023-03-29T08:14:11.632Z,3.63
2023-03-29T08:19:56.037Z,5.65
2023-03-29T08:25:18.624Z,3.75
2023-03-29T08:30:43.567Z,4.82
2023-03-29T08:36:04.722Z,4.13
2023-03-29T08:42:11.523Z,6.60
2023-03-29T08:47:47.091Z,3.67
2023-03-29T08:53:35.189Z,7.80
2023-03-29T08:59:19.657Z,5.30
2023-03-29T09:04:42.579Z,3.45
2023-03-29T09:10:47.760Z,6.50
2023-03-29T09:16:45.100Z,6.80
2023-03-29T09:22:32.615Z,4.22
2023-03-29T09:28:18.381Z,5.63
2023-03-29T09:33:59.464Z,5.43
2023-03-29T09:39:32.000Z,6.38
2023-03-29T09:45:08.525Z,5.72
2023-03-29T09:50:38.545Z,6.78
2023-03-29T09:56:02.355Z,5.00
2023-03-29T10:01:38.668Z,3.58
2023-03-29T10:07:01.693Z,3.83
2023-03-29T10:12:23.244Z,2.97
2023-03-29T10:17:46.268Z,1.60
2023-03-29T10:23:09.255Z,3.13
2023-03-29T10:28:32.175Z,3.70
2023-03-29T10:33:56.204Z,3.33
2023-03-29T10:39:17.344Z,4.63
2023-03-29T10:44:38.685Z,2.65
2023-03-29T10:49:59.737Z,1.40
2023-03-29T10:55:25.248Z,2.53
2023-03-29T11:00:55.355Z,2.38
2023-03-29T11:06:28.179Z,3.22
2023-03-29T11:12:15.613Z,2.10
2023-03-29T11:18:09.757Z,2.75
2023-03-29T11:23:48.778Z,2.90
2023-03-29T11:29:40.149Z,4.72
2023-03-29T11:35:19.167Z,3.83
2023-03-29T11:40:43.132Z,1.30
2023-03-29T11:46:14.043Z,3.78
2023-03-29T11:51:41.389Z,3.63
2023-03-29T11:57:07.263Z,5.25
2023-03-29T12:02:37.230Z,1.92
2023-03-29T12:08:09.306Z,2.63
2023-03-29T12:14:05.061Z,3.22
2023-03-29T12:19:40.386Z,3.90
2023-03-29T12:25:06.453Z,3.00
2023-03-29T12:30:45.262Z,2.45
2023-03-29T12:36:32.654Z,2.67
2023-03-29T12:42:22.187Z,6.40
2023-03-29T12:48:02.424Z,2.33
2023-03-29T12:53:26.996Z,3.28
2023-03-29T12:59:16.899Z,3.40
2023-03-29T13:04:50.233Z,3.28
2023-03-29T13:10:31.411Z,2.90
2023-03-29T13:15:52.356Z,5.57
2023-03-29T13:21:28.582Z,4.78
2023-03-29T13:26:57.559Z,2.65
2023-03-29T13:32:27.920Z,2.85
2023-03-29T13:38:00.210Z,2.88
2023-03-29T13:43:30.993Z,2.50
2023-03-29T13:49:01.733Z,2.35
2023-03-29T13:54:41.779Z,2.42
2023-03-29T14:00:18.144Z,5.05
2023-03-29T14:05:41.915Z,2.80
2023-03-29T14:11:05.511Z,3.17
2023-03-29T14:16:32.893Z,2.35
2023-03-29T14:21:53.486Z,3.53
2023-03-29T14:27:16.120Z,3.25
2023-03-29T14:32:39.320Z,4.63
2023-03-29T14:38:01.653Z,2.83
2023-03-29T14:43:24.207Z,4.00
2023-03-29T14:48:45.585Z,2.47
2023-03-29T14:54:07.555Z,3.00
2023-03-29T14:59:36.845Z,2.67
2023-03-29T15:05:08.562Z,3.30
2023-03-29T15:10:33.383Z,2.28
2023-03-29T15:16:00.834Z,4.78
2023-03-29T15:21:22.758Z,4.00
2023-03-29T15:26:43.626Z,5.90
2023-03-29T15:32:04.404Z,3.85
2023-03-29T15:37:25.448Z,3.17
2023-03-29T15:42:46.622Z,2.20
2023-03-29T15:48:19.881Z,4.03
2023-03-29T15:53:41.222Z,3.67
2023-03-29T15:59:02.177Z,4.03
2023-03-29T16:04:23.005Z,2.72
2023-03-29T16:09:45.257Z,5.22
2023-03-29T16:15:15.939Z,4.85
2023-03-29T16:20:38.321Z,2.50
2023-03-29T16:25:59.557Z,4.15
2023-03-29T16:31:23.608Z,4.57
2023-03-29T16:36:45.095Z,3.13
2023-03-29T16:42:06.278Z,3.55
2023-03-29T16:47:27.515Z,3.70
2023-03-29T16:52:51.507Z,2.55
2023-03-29T16:58:12.495Z,7.72
2023-03-29T17:03:33.138Z,5.10
2023-03-29T17:08:53.959Z,3.13
2023-03-29T17:14:15.404Z,6.22
2023-03-29T17:19:36.170Z,6.88
2023-03-29T17:24:57.166Z,7.50
2023-03-29T17:30:18.315Z,5.03
2023-03-29T17:35:41.761Z,4.35
2023-03-29T17:41:04.503Z,5.15
2023-03-29T17:46:25.997Z,7.60
2023-03-29T17:51:46.988Z,5.53
2023-03-29T17:57:07.796Z,13.65
2023-03-29T18:02:28.496Z,10.40
2023-03-29T18:07:49.758Z,8.07
2023-03-29T18:13:13.938Z,9.30
2023-03-29T18:18:34.918Z,7.43
2023-03-29T18:23:57.023Z,9.57
2023-03-29T18:29:18.211Z,10.10
2023-03-29T18:34:39.483Z,8.40
2023-03-29T18:40:00.382Z,6.68
2023-03-29T18:45:22.302Z,7.13
2023-03-29T18:50:47.003Z,7.45
2023-03-29T18:56:08.205Z,6.65
2023-03-29T19:01:28.882Z,7.90
2023-03-29T19:06:49.557Z,6.82
2023-03-29T19:12:10.597Z,14.85
2023-03-29T19:17:32.213Z,11.18
2023-03-29T19:22:53.548Z,8.23
2023-03-29T19:28:14.537Z,16.90
2023-03-29T19:33:35.193Z,15.30
2023-03-29T19:38:56.161Z,15.00
2023-03-29T19:44:17.458Z,12.85
2023-03-29T19:49:38.723Z,9.48
2023-03-29T19:54:59.819Z,12.52
2023-03-29T20:00:24.458Z,12.30
2023-03-29T20:05:46.862Z,9.77
2023-03-29T20:11:10.367Z,9.50
2023-03-29T20:16:34.380Z,11.07
2023-03-29T20:21:57.792Z,18.60
2023-03-29T20:27:18.666Z,16.75
2023-03-29T20:32:39.765Z,19.42
2023-03-29T20:38:00.727Z,14.75
2023-03-29T20:43:21.525Z,19.25
2023-03-29T20:48:54.420Z,30.98
2023-03-29T20:54:15.386Z,36.13
2023-03-29T20:59:38.028Z,27.48
2023-03-29T21:05:00.297Z,34.28
2023-03-29T21:10:23.741Z,38.88
2023-03-29T21:15:46.490Z,25.85
2023-03-29T21:21:11.777Z,17.65
2023-03-29T21:26:32.868Z,8.93
2023-03-29T21:31:53.797Z,12.68
2023-03-29T21:37:15.349Z,10.65
2023-03-29T21:42:36.276Z,12.45
2023-03-29T21:47:57.363Z,11.23
2023-03-29T21:53:18.533Z,7.43
2023-03-29T21:58:39.355Z,9.48
2023-03-29T22:04:00.287Z,7.28
2023-03-29T22:09:21.296Z,10.80
2023-03-29T22:14:42.094Z,10.52
2023-03-29T22:20:13.778Z,8.18
2023-03-29T22:25:37.199Z,9.80
2023-03-29T22:31:02.188Z,10.32
2023-03-29T22:36:26.353Z,9.73
2023-03-29T22:41:47.278Z,12.98
2023-03-29T22:47:08.414Z,9.57
2023-03-29T22:52:29.310Z,10.10
2023-03-29T22:57:49.945Z,17.10
2023-03-29T23:03:10.622Z,11.40
2023-03-29T23:08:33.262Z,17.65
2023-03-29T23:13:54.260Z,10.30
2023-03-29T23:19:15.023Z,13.48
2023-03-29T23:24:35.614Z,12.10
2023-03-29T23:29:56.404Z,11.40
2023-03-29T23:35:17.072Z,10.35
2023-03-29T23:40:37.799Z,12.48
2023-03-29T23:46:01.143Z,15.18
2023-03-29T23:51:28.833Z,14.10
2023-03-29T23:56:49.848Z,11.45
